Eships Agamid — ZDHS9 — position and weather

sailwx.info

Track history (hours):
 
Tides and Currents Weather Stations Pressure Air Temp Water Temp Dewpoint Dewpoint Depression Visibility Wind Speed Wind Dir Waves Ship Positions

Eships Agamid

Last reported at 2018-May-19 21:37 UTC. Time now 2018-May-25 05:31 UTC.
Position N 05°37' E 001°23'.

Length 128 m; draft 8.8 m.

Type: Tanker. MMSI: 236355000.

Date/timePositionNaut miles runAvg speedWind from/ knotsBaromVisibWave heightAir tempDewpointWater temp
2018-May-19 21:37N 05°37' E 001°23'1 9.4
2018-May-19 21:30N 05°38' E 001°23'17 9.0
2018-May-19 19:35N 05°55' E 001°18'1 6.4
2018-May-19 19:30N 05°55' E 001°18'3 5.2
2018-May-19 19:00N 05°58' E 001°17'1 1.9
2018-May-19 18:27N 05°59' E 001°17'1 2.7
2018-May-19 18:00N 05°60' E 001°16'0 0.0
2018-May-18 21:41N 05°60' E 001°16'0 0.0
2018-May-18 20:35N 05°60' E 001°16'  
2018-May-14 05:57N 07°52' W 014°16'1110.7
2018-May-14 04:55N 08°01' W 014°23'410.7
2018-May-14 04:30N 08°04' W 014°27'510.6
2018-May-14 04:00N 08°07' W 014°30'510.6
2018-May-14 03:30N 08°11' W 014°34'610.7
2018-May-14 02:59N 08°15' W 014°38'810.9
2018-May-14 02:15N 08°21' W 014°43'311.0
2018-May-14 02:00N 08°23' W 014°45'511.1
2018-May-14 01:30N 08°27' W 014°49'611.2
2018-May-14 01:00N 08°32' W 014°53'611.4
2018-May-14 00:30N 08°36' W 014°57'611.5
2018-May-14 00:00N 08°40' W 015°01'611.7
2018-May-13 23:30N 08°44' W 015°05'611.6
2018-May-13 23:00N 08°48' W 015°09'611.3
2018-May-13 22:30N 08°53' W 015°13'611.2
2018-May-13 21:56N 08°57' W 015°17'511.1
2018-May-13 21:30N 09°01' W 015°20'511.1
2018-May-13 21:00N 09°05' W 015°24'511.1
2018-May-13 20:30N 09°09' W 015°28'611.2
2018-May-13 20:00N 09°13' W 015°32'611.1
2018-May-13 19:30N 09°17' W 015°35'611.2
2018-May-13 19:00N 09°22' W 015°39'611.2
2018-May-13 18:30N 09°26' W 015°43'611.2
2018-May-13 18:00N 09°30' W 015°46'510.9
2018-May-13 17:30N 09°34' W 015°50'510.9
2018-May-13 17:00N 09°38' W 015°54'511.0
2018-May-13 16:30N 09°42' W 015°58'611.1
2018-May-13 16:00N 09°46' W 016°02'611.2
2018-May-13 15:30N 09°50' W 016°06'611.3
2018-May-13 15:00N 09°54' W 016°10'611.4
2018-May-13 14:30N 09°58' W 016°13'611.3
2018-May-13 14:00N 10°03' W 016°17'4811.2
2018-May-13 09:41N 10°38' W 016°51'2711.2
2018-May-13 07:15N 10°58' W 017°09'6910.8
2018-May-13 00:53N 12°05' W 017°25'  
Track history (hours):
 
Tides and Currents Weather Stations Pressure Air Temp Water Temp Dewpoint Dewpoint Depression Visibility Wind Speed Wind Dir Waves Ship Positions

Eships Agamid

Last reported at 2018-May-19 21:37 UTC. Time now 2018-May-25 05:31 UTC.
Position N 05°37' E 001°23'.

Length 128 m; draft 8.8 m.

Type: Tanker. MMSI: 236355000.

Date/timePositionNaut miles runAvg speedWind from/ knotsBaromVisibWave heightAir tempDewpointWater temp
2018-May-19 21:37N 05°37' E 001°23'1 9.4
2018-May-19 21:30N 05°38' E 001°23'17 9.0
2018-May-19 19:35N 05°55' E 001°18'1 6.4
2018-May-19 19:30N 05°55' E 001°18'3 5.2
2018-May-19 19:00N 05°58' E 001°17'1 1.9
2018-May-19 18:27N 05°59' E 001°17'1 2.7
2018-May-19 18:00N 05°60' E 001°16'0 0.0
2018-May-18 21:41N 05°60' E 001°16'0 0.0
2018-May-18 20:35N 05°60' E 001°16'  
2018-May-14 05:57N 07°52' W 014°16'1110.7
2018-May-14 04:55N 08°01' W 014°23'410.7
2018-May-14 04:30N 08°04' W 014°27'510.6
2018-May-14 04:00N 08°07' W 014°30'510.6
2018-May-14 03:30N 08°11' W 014°34'610.7
2018-May-14 02:59N 08°15' W 014°38'810.9
2018-May-14 02:15N 08°21' W 014°43'311.0
2018-May-14 02:00N 08°23' W 014°45'511.1
2018-May-14 01:30N 08°27' W 014°49'611.2
2018-May-14 01:00N 08°32' W 014°53'611.4
2018-May-14 00:30N 08°36' W 014°57'611.5
2018-May-14 00:00N 08°40' W 015°01'611.7
2018-May-13 23:30N 08°44' W 015°05'611.6
2018-May-13 23:00N 08°48' W 015°09'611.3
2018-May-13 22:30N 08°53' W 015°13'611.2
2018-May-13 21:56N 08°57' W 015°17'511.1
2018-May-13 21:30N 09°01' W 015°20'511.1
2018-May-13 21:00N 09°05' W 015°24'511.1
2018-May-13 20:30N 09°09' W 015°28'611.2
2018-May-13 20:00N 09°13' W 015°32'611.1
2018-May-13 19:30N 09°17' W 015°35'611.2
2018-May-13 19:00N 09°22' W 015°39'611.2
2018-May-13 18:30N 09°26' W 015°43'611.2
2018-May-13 18:00N 09°30' W 015°46'510.9
2018-May-13 17:30N 09°34' W 015°50'510.9
2018-May-13 17:00N 09°38' W 015°54'511.0
2018-May-13 16:30N 09°42' W 015°58'611.1
2018-May-13 16:00N 09°46' W 016°02'611.2
2018-May-13 15:30N 09°50' W 016°06'611.3
2018-May-13 15:00N 09°54' W 016°10'611.4
2018-May-13 14:30N 09°58' W 016°13'611.3
2018-May-13 14:00N 10°03' W 016°17'4811.2
2018-May-13 09:41N 10°38' W 016°51'2711.2
2018-May-13 07:15N 10°58' W 017°09'6910.8
2018-May-13 00:53N 12°05' W 017°25'  

Dump ship's entire track history